Time;durP1;ratioP1;P1;durP2;ratioP2;P2;SDS_P1;SDS_P2;PMS_P1;PMS_P2;Temp;Humidity;BMP_temperature;BMP_pressure;BME280_temperature;BME280_humidity;BME280_pressure;Samples;Min_cycle;Max_cycle;Signal;HPM_P1;HPM_P2
2023/04/12 00:00:09;;;;;;;;;;;;;;;12.14;54.31;98588.00;5091828;28;19916;-43
2023/04/12 00:02:36;;;;;;;;;;;;;;;12.29;53.17;98587.44;5090071;28;19969;-43
2023/04/12 00:05:02;;;;;;;;;;;;;;;12.09;53.91;98583.38;5091140;28;20002;-42
2023/04/12 00:07:28;;;;;;;;;;;;;;;12.32;52.86;98574.41;5091632;28;19912;-42
2023/04/12 00:09:53;;;;;;;;;;;;;;;12.24;53.42;98582.00;5091748;28;19916;-43
2023/04/12 00:12:19;;;;;;;;;;;;;;;11.94;54.34;98577.81;5091934;28;19919;-42
2023/04/12 00:14:45;;;;;;;;;;;;;;;12.01;53.94;98581.09;5091836;28;20383;-43
2023/04/12 00:17:10;;;;;;;;;;;;;;;12.18;53.17;98581.13;5091957;28;19934;-42
2023/04/12 00:19:40;;;;;;;;;;;;;;;12.35;52.76;98591.78;5090284;28;20371;-42
2023/04/12 00:22:05;;;;;;;;;;;;;;;12.37;53.05;98587.03;5091648;28;19995;-42
2023/04/12 00:24:31;;;;;;;;;;;;;;;12.27;53.25;98589.53;5091529;28;20396;-43
2023/04/12 00:26:57;;;;;;;;;;;;;;;12.24;53.13;98577.50;5091654;28;20276;-43
2023/04/12 00:29:22;;;;;;;;;;;;;;;12.18;53.06;98575.78;5090702;28;19919;-43
2023/04/12 00:31:47;;;;;;;;;;;;;;;11.83;54.13;98565.31;5091516;28;20002;-43
2023/04/12 00:34:12;;;;;;;;;;;;;;;11.91;54.03;98570.28;5091523;28;20316;-43
2023/04/12 00:36:38;;;;;;;;;;;;;;;11.63;55.25;98569.25;5091520;28;19912;-44
2023/04/12 00:39:03;;;;;;;;;;;;;;;12.08;53.55;98562.28;5090084;28;19940;-43
2023/04/12 00:41:29;;;;;;;;;;;;;;;11.91;54.30;98554.28;5091517;28;19912;-43
2023/04/12 00:43:54;;;;;;;;;;;;;;;11.97;54.08;98557.84;5091498;28;20399;-41
2023/04/12 00:46:19;;;;;;;;;;;;;;;11.70;54.26;98555.75;5091407;28;20433;-41
2023/04/12 00:48:47;;;;;;;;;;;;;;;11.74;54.60;98552.34;5091017;28;19912;-42
2023/04/12 00:51:12;;;;;;;;;;;;;;;11.79;53.92;98556.19;5091604;28;20007;-42
2023/04/12 00:53:38;;;;;;;;;;;;;;;11.92;53.93;98561.25;5091558;28;19995;-42
2023/04/12 00:56:04;;;;;;;;;;;;;;;11.93;53.97;98547.66;5089931;28;19920;-41
2023/04/12 00:58:30;;;;;;;;;;;;;;;11.86;54.55;98551.50;5091317;28;19931;-43
2023/04/12 01:00:56;;;;;;;;;;;;;;;11.80;54.49;98544.47;5093300;28;19916;-43
2023/04/12 01:03:22;;;;;;;;;;;;;;;11.72;55.01;98548.31;5094807;28;19934;-42
2023/04/12 01:06:08;;;;;;;;;;;;;;;11.93;53.95;98544.97;5095158;28;19916;-43
2023/04/12 01:08:42;;;;;;;;;;;;;;;11.78;54.51;98542.03;5094688;28;19923;-42
2023/04/12 01:11:11;;;;;;;;;;;;;;;12.09;53.41;98535.41;5094638;28;19912;-42
2023/04/12 01:13:54;;;;;;;;;;;;;;;11.86;54.56;98535.50;5094715;28;19912;-42
2023/04/12 01:16:20;;;;;;;;;;;;;;;11.69;55.04;98538.97;5094855;28;20393;-42
2023/04/12 01:18:50;;;;;;;;;;;;;;;11.86;54.56;98531.00;5094784;28;19912;-42
2023/04/12 01:21:19;;;;;;;;;;;;;;;11.75;54.96;98526.53;5094876;28;19916;-42
2023/04/12 01:24:13;;;;;;;;;;;;;;;11.76;55.35;98528.13;5094902;28;19943;-41
2023/04/12 01:26:46;;;;;;;;;;;;;;;11.66;55.64;98518.13;5094966;28;19974;-42
2023/04/12 01:29:15;;;;;;;;;;;;;;;11.72;54.86;98513.69;5094955;28;19912;-42
2023/04/12 01:31:52;;;;;;;;;;;;;;;11.74;55.56;98509.72;5094874;28;19912;-42
2023/04/12 01:34:18;;;;;;;;;;;;;;;11.79;55.03;98511.69;5094449;28;19919;-43
2023/04/12 01:36:46;;;;;;;;;;;;;;;11.74;55.39;98499.06;5095006;28;19997;-43
2023/04/12 01:39:11;;;;;;;;;;;;;;;11.86;55.46;98506.19;5094645;28;19923;-42
2023/04/12 01:41:42;;;;;;;;;;;;;;;11.91;55.35;98511.63;5094332;28;19916;-43
2023/04/12 01:44:07;;;;;;;;;;;;;;;11.75;55.99;98510.56;5094577;28;20003;-43
2023/04/12 01:46:33;;;;;;;;;;;;;;;11.67;55.80;98506.41;5094573;28;19962;-42
2023/04/12 01:48:58;;;;;;;;;;;;;;;11.59;56.80;98512.13;5094332;28;19912;-42
2023/04/12 01:51:46;;;;;;;;;;;;;;;11.76;56.34;98514.00;5094289;28;19920;-42
2023/04/12 01:54:15;;;;;;;;;;;;;;;11.92;55.81;98522.06;5094061;28;20371;-43
2023/04/12 01:56:43;;;;;;;;;;;;;;;11.69;55.75;98516.81;5094216;28;19912;-42
2023/04/12 01:59:10;;;;;;;;;;;;;;;11.82;56.03;98518.38;5094278;28;20291;-42
2023/04/12 02:01:35;;;;;;;;;;;;;;;11.98;55.98;98522.94;5093871;28;19916;-42
2023/04/12 02:04:03;;;;;;;;;;;;;;;11.89;56.16;98519.03;5093950;28;19915;-42
2023/04/12 02:06:29;;;;;;;;;;;;;;;12.05;56.15;98517.44;5094025;28;19923;-41
2023/04/12 02:08:58;;;;;;;;;;;;;;;11.59;57.56;98530.78;5093762;28;19916;-41
2023/04/12 02:11:24;;;;;;;;;;;;;;;11.59;57.71;98517.44;5093578;28;20447;-41
2023/04/12 02:13:49;;;;;;;;;;;;;;;11.40;57.67;98521.38;5093994;28;19916;-41
2023/04/12 02:16:15;;;;;;;;;;;;;;;11.62;57.43;98513.53;5093949;28;20287;-42
2023/04/12 02:18:41;;;;;;;;;;;;;;;11.69;57.94;98519.47;5093836;28;19912;-42
2023/04/12 02:21:06;;;;;;;;;;;;;;;11.69;57.00;98517.66;5093612;28;19923;-42
2023/04/12 02:23:31;;;;;;;;;;;;;;;11.48;57.35;98516.47;5093343;28;19912;-42
2023/04/12 02:25:57;;;;;;;;;;;;;;;11.69;57.01;98522.16;5093271;28;20398;-43
2023/04/12 02:28:22;;;;;;;;;;;;;;;11.61;57.40;98525.22;5093539;28;19961;-43
2023/04/12 02:30:48;;;;;;;;;;;;;;;11.57;56.91;98518.75;5093627;28;20339;-43
2023/04/12 02:33:14;;;;;;;;;;;;;;;11.46;57.72;98521.25;5092541;28;20014;-42
2023/04/12 02:35:40;;;;;;;;;;;;;;;11.53;56.99;98518.41;5093371;28;19916;-42
2023/04/12 02:38:07;;;;;;;;;;;;;;;11.72;56.05;98517.16;5093842;28;19919;-43
2023/04/12 02:40:41;;;;;;;;;;;;;;;11.93;56.07;98521.00;5093309;28;19966;-41
2023/04/12 02:43:07;;;;;;;;;;;;;;;11.96;55.02;98513.59;5093322;28;20006;-42
2023/04/12 02:45:32;;;;;;;;;;;;;;;11.93;55.64;98509.53;5093296;28;19999;-43
2023/04/12 02:47:57;;;;;;;;;;;;;;;11.90;55.36;98502.84;5092979;28;19912;-42
2023/04/12 02:50:22;;;;;;;;;;;;;;;11.88;55.72;98504.91;5093234;28;19920;-42
2023/04/12 02:52:48;;;;;;;;;;;;;;;12.14;54.82;98502.66;5093036;28;19967;-42
2023/04/12 02:55:13;;;;;;;;;;;;;;;11.91;55.38;98496.44;5093075;28;20418;-43
2023/04/12 02:57:38;;;;;;;;;;;;;;;12.03;55.32;98504.38;5093081;28;20000;-42
2023/04/12 03:00:22;;;;;;;;;;;;;;;12.06;54.75;98505.72;5092734;28;19920;-42
2023/04/12 03:02:50;;;;;;;;;;;;;;;11.82;55.49;98499.72;5092916;28;20284;-42
2023/04/12 03:05:16;;;;;;;;;;;;;;;11.89;55.59;98500.38;5093022;28;19912;-42
2023/04/12 03:07:42;;;;;;;;;;;;;;;11.76;56.00;98493.50;5093091;28;20276;-41
2023/04/12 03:10:10;;;;;;;;;;;;;;;12.01;55.25;98493.13;5092563;28;20437;-42
2023/04/12 03:12:35;;;;;;;;;;;;;;;11.95;55.26;98490.63;5092977;28;20291;-42
2023/04/12 03:15:00;;;;;;;;;;;;;;;11.58;56.08;98489.22;5092881;28;20324;-43
2023/04/12 03:17:25;;;;;;;;;;;;;;;11.54;55.56;98493.41;5093084;28;19968;-42
2023/04/12 03:19:51;;;;;;;;;;;;;;;11.54;55.64;98491.53;5092535;28;20347;-41
2023/04/12 03:22:16;;;;;;;;;;;;;;;11.89;55.00;98492.38;5092184;28;19955;-42
2023/04/12 03:24:45;;;;;;;;;;;;;;;12.09;54.86;98494.59;5092421;28;20053;-42
2023/04/12 03:27:10;;;;;;;;;;;;;;;11.64;55.98;98488.25;5092576;28;19916;-42
2023/04/12 03:29:36;;;;;;;;;;;;;;;11.86;55.25;98488.34;5092520;28;19919;-42
2023/04/12 03:32:01;;;;;;;;;;;;;;;11.85;55.38;98492.03;5092203;28;19938;-41
2023/04/12 03:34:30;;;;;;;;;;;;;;;11.64;55.70;98495.44;5092288;28;20062;-41
2023/04/12 03:36:56;;;;;;;;;;;;;;;11.71;56.22;98501.41;5092165;28;20363;-42
2023/04/12 03:39:21;;;;;;;;;;;;;;;11.70;56.33;98500.59;5092360;28;19920;-42
2023/04/12 03:41:47;;;;;;;;;;;;;;;11.52;55.86;98509.63;5092583;28;20419;-42
2023/04/12 03:44:13;;;;;;;;;;;;;;;11.68;55.78;98502.69;5092217;28;19916;-43
2023/04/12 03:46:38;;;;;;;;;;;;;;;11.98;54.19;98509.63;5092287;28;19912;-42
2023/04/12 03:49:03;;;;;;;;;;;;;;;11.79;54.82;98500.22;5092149;28;19923;-42
2023/04/12 03:51:29;;;;;;;;;;;;;;;12.04;54.22;98507.84;5092051;28;19912;-42
2023/04/12 03:53:55;;;;;;;;;;;;;;;11.81;54.82;98504.25;5091857;28;19912;-42
2023/04/12 03:56:20;;;;;;;;;;;;;;;11.67;55.32;98505.59;5091926;28;20348;-42
2023/04/12 03:58:48;;;;;;;;;;;;;;;11.77;54.70;98511.13;5091447;28;19928;-43
2023/04/12 04:01:14;;;;;;;;;;;;;;;11.80;55.00;98507.16;5091947;28;19998;-42
2023/04/12 04:03:39;;;;;;;;;;;;;;;11.99;54.65;98503.22;5091628;28;20003;-41
2023/04/12 04:06:06;;;;;;;;;;;;;;;12.01;54.72;98505.66;5090703;28;19912;-42
2023/04/12 04:08:31;;;;;;;;;;;;;;;12.10;54.20;98505.00;5091897;28;19920;-41
2023/04/12 04:10:57;;;;;;;;;;;;;;;12.35;53.77;98505.63;5091738;28;19912;-41
2023/04/12 04:13:23;;;;;;;;;;;;;;;12.17;53.98;98506.72;5090104;28;20003;-42
2023/04/12 04:15:50;;;;;;;;;;;;;;;11.90;55.69;98518.03;5091662;28;19916;-42
2023/04/12 04:18:15;;;;;;;;;;;;;;;11.81;56.36;98527.44;5091737;28;19927;-41
2023/04/12 04:20:40;;;;;;;;;;;;;;;11.84;56.48;98524.28;5091797;28;19916;-42
2023/04/12 04:23:08;;;;;;;;;;;;;;;11.64;57.19;98519.41;5091689;28;19943;-42
2023/04/12 04:25:34;;;;;;;;;;;;;;;11.72;57.05;98524.34;5091548;28;19993;-42
2023/04/12 04:28:01;;;;;;;;;;;;;;;11.60;57.68;98520.94;5091538;28;20353;-43
2023/04/12 04:30:26;;;;;;;;;;;;;;;11.45;58.63;98524.13;5091808;28;20003;-43
2023/04/12 04:32:52;;;;;;;;;;;;;;;11.63;57.61;98525.78;5090619;28;19962;-42
2023/04/12 04:35:17;;;;;;;;;;;;;;;11.83;56.57;98536.00;5093869;28;19912;-43
2023/04/12 04:37:43;;;;;;;;;;;;;;;11.90;56.89;98542.81;5094896;28;19912;-44
2023/04/12 04:40:10;;;;;;;;;;;;;;;11.70;57.17;98545.91;5094694;28;19923;-42
2023/04/12 04:42:37;;;;;;;;;;;;;;;11.91;56.57;98548.94;5093616;28;19994;-42
2023/04/12 04:45:04;;;;;;;;;;;;;;;11.87;55.64;98548.59;5094016;28;19916;-43
2023/04/12 04:47:29;;;;;;;;;;;;;;;12.07;55.84;98550.81;5092934;28;19969;-42
2023/04/12 04:49:58;;;;;;;;;;;;;;;11.95;55.68;98544.75;5093154;28;20291;-43
2023/04/12 04:52:24;;;;;;;;;;;;;;;12.03;54.94;98540.88;5093415;28;19995;-43
2023/04/12 04:54:49;;;;;;;;;;;;;;;12.24;55.27;98544.66;5093283;28;20064;-43
2023/04/12 04:57:15;;;;;;;;;;;;;;;12.09;55.40;98543.41;5091969;28;19912;-42
2023/04/12 04:59:40;;;;;;;;;;;;;;;12.20;55.04;98538.22;5092920;28;19916;-42
2023/04/12 05:02:05;;;;;;;;;;;;;;;12.37;54.54;98540.88;5093235;28;19912;-42
2023/04/12 05:04:31;;;;;;;;;;;;;;;12.38;54.53;98537.16;5093569;28;19989;-43
2023/04/12 05:06:56;;;;;;;;;;;;;;;12.47;54.71;98547.16;5093301;28;19919;-42
2023/04/12 05:09:21;;;;;;;;;;;;;;;12.59;54.75;98535.59;5093287;28;20343;-41
2023/04/12 05:11:46;;;;;;;;;;;;;;;12.67;54.26;98535.97;5093396;28;19912;-39
2023/04/12 05:14:12;;;;;;;;;;;;;;;12.39;55.47;98536.88;5093524;28;19916;-37
2023/04/12 05:16:37;;;;;;;;;;;;;;;12.46;55.06;98544.75;5093406;28;20338;-36
2023/04/12 05:19:02;;;;;;;;;;;;;;;12.82;54.33;98531.88;5092998;28;20023;-35
2023/04/12 05:21:28;;;;;;;;;;;;;;;12.68;55.21;98536.78;5093107;28;19912;-37
2023/04/12 05:23:53;;;;;;;;;;;;;;;13.06;54.10;98548.47;5093040;28;19955;-36
2023/04/12 05:26:18;;;;;;;;;;;;;;;12.87;55.20;98545.28;5093118;28;19916;-36
2023/04/12 05:28:44;;;;;;;;;;;;;;;12.80;55.10;98553.50;5093084;28;19944;-37
2023/04/12 05:31:10;;;;;;;;;;;;;;;12.91;54.77;98552.56;5093362;28;19912;-37
2023/04/12 05:33:36;;;;;;;;;;;;;;;13.40;53.63;98551.84;5092915;28;20443;-37
2023/04/12 05:36:01;;;;;;;;;;;;;;;13.34;54.16;98550.16;5093213;28;20390;-36
2023/04/12 05:38:27;;;;;;;;;;;;;;;13.49;54.11;98552.19;5092722;28;19916;-37
2023/04/12 05:40:52;;;;;;;;;;;;;;;13.42;54.20;98544.38;5092803;28;19999;-35
2023/04/12 05:43:18;;;;;;;;;;;;;;;13.30;55.12;98549.03;5092976;28;19990;-36
2023/04/12 05:45:43;;;;;;;;;;;;;;;13.54;54.57;98554.13;5092037;28;19912;-37
2023/04/12 05:48:09;;;;;;;;;;;;;;;13.44;54.64;98547.63;5092729;28;20358;-37
2023/04/12 05:50:34;;;;;;;;;;;;;;;13.66;54.16;98557.44;5092676;28;19916;-37
2023/04/12 05:53:00;;;;;;;;;;;;;;;13.61;54.50;98560.06;5091176;28;19919;-37
2023/04/12 05:55:26;;;;;;;;;;;;;;;13.45;55.04;98557.22;5092539;28;19919;-37
2023/04/12 05:57:51;;;;;;;;;;;;;;;13.76;54.10;98557.53;5092725;28;20104;-36
2023/04/12 06:00:17;;;;;;;;;;;;;;;13.64;54.68;98552.34;5092965;28;20391;-38
2023/04/12 06:02:52;;;;;;;;;;;;;;;13.84;54.24;98550.91;5093477;28;19935;-36
2023/04/12 06:05:17;;;;;;;;;;;;;;;14.05;53.80;98539.34;5093649;28;19969;-36
2023/04/12 06:07:48;;;;;;;;;;;;;;;13.91;53.26;98545.38;5093381;28;19916;-37
2023/04/12 06:10:17;;;;;;;;;;;;;;;13.63;54.37;98541.91;5093253;28;19922;-37
2023/04/12 06:12:43;;;;;;;;;;;;;;;13.83;54.23;98539.44;5093184;28;20313;-36
2023/04/12 06:15:08;;;;;;;;;;;;;;;14.46;52.24;98552.22;5092985;28;19919;-36
2023/04/12 06:17:35;;;;;;;;;;;;;;;15.07;51.35;98559.81;5093072;28;20341;-36
2023/04/12 06:20:00;;;;;;;;;;;;;;;14.98;50.84;98564.03;5092883;28;19915;-35
2023/04/12 06:22:25;;;;;;;;;;;;;;;15.13;51.13;98569.47;5091409;28;19912;-36
2023/04/12 06:24:51;;;;;;;;;;;;;;;15.69;49.05;98568.03;5092307;28;19919;-37
2023/04/12 06:27:16;;;;;;;;;;;;;;;15.88;48.72;98577.22;5092841;28;19917;-38
2023/04/12 06:29:41;;;;;;;;;;;;;;;15.52;49.56;98558.34;5092986;28;19987;-36
2023/04/12 06:32:07;;;;;;;;;;;;;;;15.96;48.43;98563.28;5092429;28;20360;-36
2023/04/12 06:34:32;;;;;;;;;;;;;;;15.87;48.78;98556.81;5092808;28;19958;-36
2023/04/12 06:36:58;;;;;;;;;;;;;;;15.81;48.13;98571.31;5092833;28;19968;-44
2023/04/12 06:39:24;;;;;;;;;;;;;;;15.63;48.60;98569.88;5092610;28;20532;-42
2023/04/12 06:41:49;;;;;;;;;;;;;;;15.42;49.53;98574.41;5092652;28;20025;-43
2023/04/12 06:44:14;;;;;;;;;;;;;;;15.43;49.31;98578.69;5092693;28;19916;-36
2023/04/12 06:46:40;;;;;;;;;;;;;;;15.49;48.61;98566.91;5092598;28;20040;-36
2023/04/12 06:49:05;;;;;;;;;;;;;;;15.68;49.38;98574.47;5092433;28;19920;-43
2023/04/12 06:51:30;;;;;;;;;;;;;;;15.76;48.94;98566.75;5092416;28;19919;-35
2023/04/12 06:53:56;;;;;;;;;;;;;;;15.22;49.73;98573.25;5092408;28;20256;-41
2023/04/12 06:56:22;;;;;;;;;;;;;;;15.41;48.89;98587.00;5092555;28;19951;-36
2023/04/12 06:58:47;;;;;;;;;;;;;;;15.28;49.26;98587.50;5092171;28;19950;-36
2023/04/12 07:01:13;;;;;;;;;;;;;;;15.52;48.14;98577.13;5092084;28;19916;-37
2023/04/12 07:03:38;;;;;;;;;;;;;;;15.95;46.69;98577.75;5092413;28;20384;-36
2023/04/12 07:06:04;;;;;;;;;;;;;;;16.46;45.31;98584.22;5091136;28;19923;-35
2023/04/12 07:08:29;;;;;;;;;;;;;;;16.14;45.49;98578.03;5091635;28;19919;-36
2023/04/12 07:10:55;;;;;;;;;;;;;;;16.11;44.07;98583.16;5092163;28;19943;-36
2023/04/12 07:13:21;;;;;;;;;;;;;;;15.99;43.80;98580.72;5091969;28;19912;-36
2023/04/12 07:15:47;;;;;;;;;;;;;;;16.02;43.26;98580.19;5091951;28;19912;-36
2023/04/12 07:18:13;;;;;;;;;;;;;;;15.98;42.59;98573.75;5092042;28;19946;-36
2023/04/12 07:20:38;;;;;;;;;;;;;;;16.14;42.72;98569.19;5091707;28;20547;-36
2023/04/12 07:23:03;;;;;;;;;;;;;;;16.19;42.78;98579.94;5092064;28;19916;-36
2023/04/12 07:25:28;;;;;;;;;;;;;;;16.69;41.15;98572.88;5091759;28;19931;-36
2023/04/12 07:27:54;;;;;;;;;;;;;;;15.99;39.73;98572.66;5091051;28;19945;-37
2023/04/12 07:30:20;;;;;;;;;;;;;;;15.95;39.34;98569.72;5091898;28;19912;-36
2023/04/12 07:32:45;;;;;;;;;;;;;;;15.64;38.74;98571.50;5091833;28;19912;-37
2023/04/12 07:35:10;;;;;;;;;;;;;;;15.91;38.60;98575.88;5091609;28;19920;-36
2023/04/12 07:37:36;;;;;;;;;;;;;;;16.27;38.63;98584.75;5091619;28;19912;-36
2023/04/12 07:40:01;;;;;;;;;;;;;;;16.54;37.20;98560.28;5091208;28;19916;-36
2023/04/12 07:42:27;;;;;;;;;;;;;;;16.83;35.49;98578.56;5091008;28;20440;-36
2023/04/12 07:44:52;;;;;;;;;;;;;;;17.13;34.91;98576.81;5091194;28;20007;-36
2023/04/12 07:47:17;;;;;;;;;;;;;;;17.54;34.26;98572.06;5091360;28;20292;-36
2023/04/12 07:49:43;;;;;;;;;;;;;;;17.98;34.06;98562.41;5091080;28;19918;-36
2023/04/12 07:52:08;;;;;;;;;;;;;;;18.25;33.82;98570.00;5091065;28;19962;-36
2023/04/12 07:54:33;;;;;;;;;;;;;;;18.25;33.80;98561.91;5091046;28;20508;-35
2023/04/12 07:56:59;;;;;;;;;;;;;;;18.53;32.92;98562.22;5091211;28;20011;-36
2023/04/12 07:59:25;;;;;;;;;;;;;;;18.40;32.71;98552.91;5091320;28;19993;-36
2023/04/12 08:01:50;;;;;;;;;;;;;;;18.56;32.30;98551.66;5091177;28;20638;-37
2023/04/12 08:04:15;;;;;;;;;;;;;;;18.69;31.79;98535.91;5091244;28;19969;-37
2023/04/12 08:06:41;;;;;;;;;;;;;;;19.14;31.73;98534.59;5090742;28;19919;-36
2023/04/12 08:09:07;;;;;;;;;;;;;;;19.53;31.70;98530.03;5090478;28;19919;-35
2023/04/12 08:11:34;;;;;;;;;;;;;;;19.47;31.51;98533.91;5090983;28;20280;-35
2023/04/12 08:13:59;;;;;;;;;;;;;;;18.85;33.25;98518.50;5090954;28;19912;-36
2023/04/12 08:16:25;;;;;;;;;;;;;;;18.58;33.81;98535.19;5090897;28;20340;-36
2023/04/12 08:18:50;;;;;;;;;;;;;;;19.29;33.46;98530.09;5090895;28;20431;-35
2023/04/12 08:21:15;;;;;;;;;;;;;;;19.94;33.26;98526.75;5090642;28;20010;-37
2023/04/12 08:23:41;;;;;;;;;;;;;;;19.57;32.54;98539.13;5090705;28;19912;-36
2023/04/12 08:26:06;;;;;;;;;;;;;;;18.24;34.55;98538.78;5090066;28;20073;-36
2023/04/12 08:28:32;;;;;;;;;;;;;;;18.44;34.42;98534.28;5090215;28;19912;-35
2023/04/12 08:30:58;;;;;;;;;;;;;;;17.88;34.75;98541.75;5090290;28;20298;-37
2023/04/12 08:33:23;;;;;;;;;;;;;;;17.66;35.40;98525.19;5091508;28;20376;-35
2023/04/12 08:35:49;;;;;;;;;;;;;;;17.76;35.06;98536.69;5091560;28;20006;-36
2023/04/12 08:38:14;;;;;;;;;;;;;;;17.46;35.33;98523.44;5091489;28;19912;-36
2023/04/12 08:40:43;;;;;;;;;;;;;;;17.58;34.73;98507.78;5090450;28;19916;-36
2023/04/12 08:43:10;;;;;;;;;;;;;;;17.32;35.81;98504.44;5090652;28;20328;-36
2023/04/12 08:45:36;;;;;;;;;;;;;;;18.10;34.60;98510.88;5090173;28;19924;-36
2023/04/12 08:48:02;;;;;;;;;;;;;;;17.91;34.61;98508.09;5091029;28;19912;-36
2023/04/12 08:50:28;;;;;;;;;;;;;;;18.38;34.24;98509.28;5090668;28;20288;-37
2023/04/12 08:52:54;;;;;;;;;;;;;;;18.46;33.66;98516.75;5090653;28;19912;-35
2023/04/12 08:55:20;;;;;;;;;;;;;;;18.91;33.03;98495.00;5090483;28;19928;-37
2023/04/12 08:57:46;;;;;;;;;;;;;;;19.27;32.38;98508.81;5089426;28;19918;-36
2023/04/12 09:00:13;;;;;;;;;;;;;;;18.92;32.94;98524.38;5089787;28;19927;-36
2023/04/12 09:02:41;;;;;;;;;;;;;;;18.18;34.19;98515.66;5090929;28;19912;-37
2023/04/12 09:05:08;;;;;;;;;;;;;;;17.58;35.79;98513.94;5090717;28;19978;-36
2023/04/12 09:07:34;;;;;;;;;;;;;;;18.36;35.10;98504.19;5090263;28;19922;-35
2023/04/12 09:09:59;;;;;;;;;;;;;;;18.53;35.04;98514.50;5091125;28;19912;-35
2023/04/12 09:12:26;;;;;;;;;;;;;;;18.36;34.25;98522.25;5090732;28;19995;-35
2023/04/12 09:15:12;;;;;;;;;;;;;;;18.24;34.56;98514.53;5090967;28;19919;-34
2023/04/12 09:17:37;;;;;;;;;;;;;;;18.33;34.16;98495.88;5089463;28;20006;-35
2023/04/12 09:20:22;;;;;;;;;;;;;;;18.13;35.21;98497.66;5090151;28;20380;-36
2023/04/12 09:22:48;;;;;;;;;;;;;;;18.88;34.60;98503.66;5094303;28;20426;-36
2023/04/12 09:25:14;;;;;;;;;;;;;;;19.36;33.32;98494.66;5094663;28;19924;-36
2023/04/12 09:27:46;;;;;;;;;;;;;;;19.33;34.16;98504.16;5094275;28;19912;-36
2023/04/12 09:30:12;;;;;;;;;;;;;;;18.90;35.11;98493.38;5094159;28;20282;-36
2023/04/12 09:32:37;;;;;;;;;;;;;;;19.25;33.98;98505.63;5094298;28;19938;-36
2023/04/12 09:35:04;;;;;;;;;;;;;;;19.78;33.87;98490.28;5094377;28;19919;-36
2023/04/12 09:37:29;;;;;;;;;;;;;;;19.75;33.67;98480.91;5094333;28;19912;-35
2023/04/12 09:40:05;;;;;;;;;;;;;;;19.20;33.56;98445.56;5093538;28;20238;-37
2023/04/12 09:42:34;;;;;;;;;;;;;;;19.86;33.16;98466.16;5093424;28;19939;-36
2023/04/12 09:45:00;;;;;;;;;;;;;;;20.22;32.49;98468.22;5093876;28;19912;-36
2023/04/12 09:47:38;;;;;;;;;;;;;;;20.72;31.53;98472.19;5093882;28;19927;-37
2023/04/12 09:50:04;;;;;;;;;;;;;;;20.59;31.49;98466.44;5093504;28;19912;-35
2023/04/12 09:52:34;;;;;;;;;;;;;;;20.19;31.48;98458.00;5093338;28;20014;-35
2023/04/12 09:54:59;;;;;;;;;;;;;;;19.61;32.17;98458.41;5093789;28;20010;-36
2023/04/12 09:57:25;;;;;;;;;;;;;;;19.01;32.40;98451.72;5093946;28;19962;-36
2023/04/12 09:59:51;;;;;;;;;;;;;;;19.36;31.45;98454.22;5094091;28;19916;-35
2023/04/12 10:02:17;;;;;;;;;;;;;;;20.08;31.16;98435.78;5093848;28;19919;-36
2023/04/12 10:04:43;;;;;;;;;;;;;;;19.39;30.54;98448.25;5093205;28;19912;-35
2023/04/12 10:07:09;;;;;;;;;;;;;;;19.59;30.37;98447.94;5093823;28;20061;-36
2023/04/12 10:09:37;;;;;;;;;;;;;;;19.70;29.29;98440.47;5093047;28;20080;-37
2023/04/12 10:12:02;;;;;;;;;;;;;;;19.73;29.02;98429.91;5093510;28;19912;-34
2023/04/12 10:14:28;;;;;;;;;;;;;;;19.97;28.56;98436.25;5093297;28;20162;-36
2023/04/12 10:16:55;;;;;;;;;;;;;;;20.02;28.38;98433.47;5093429;28;19969;-36
2023/04/12 10:19:23;;;;;;;;;;;;;;;20.53;28.66;98432.53;5093185;28;20398;-36
2023/04/12 10:21:48;;;;;;;;;;;;;;;20.26;27.75;98436.81;5092984;28;20398;-36
2023/04/12 10:24:13;;;;;;;;;;;;;;;20.89;27.33;98432.63;5093210;28;19928;-35
2023/04/12 10:26:45;;;;;;;;;;;;;;;21.04;27.02;98441.50;5092834;28;19917;-36
2023/04/12 10:29:29;;;;;;;;;;;;;;;21.21;26.82;98419.19;5092839;28;20267;-37
2023/04/12 10:32:15;;;;;;;;;;;;;;;21.66;26.34;98427.38;5091814;28;19916;-34
2023/04/12 10:34:41;;;;;;;;;;;;;;;21.68;26.17;98419.75;5092285;28;19916;-36
2023/04/12 10:37:06;;;;;;;;;;;;;;;21.71;26.14;98424.56;5092574;28;19912;-35
2023/04/12 10:39:42;;;;;;;;;;;;;;;21.12;26.32;98426.47;5092583;28;19973;-37
2023/04/12 10:42:22;;;;;;;;;;;;;;;20.96;26.41;98426.00;5092444;28;19912;-36
2023/04/12 10:44:48;;;;;;;;;;;;;;;20.70;26.77;98421.94;5093103;28;19912;-37
2023/04/12 10:47:15;;;;;;;;;;;;;;;21.18;25.83;98414.41;5092724;28;19999;-36
2023/04/12 10:50:00;;;;;;;;;;;;;;;21.32;25.75;98414.38;5093025;28;19942;-35
2023/04/12 10:52:25;;;;;;;;;;;;;;;21.94;25.56;98408.28;5092511;28;19923;-36
2023/04/12 10:54:50;;;;;;;;;;;;;;;20.72;26.05;98420.84;5092894;28;19912;-35
2023/04/12 10:57:36;;;;;;;;;;;;;;;20.69;25.29;98420.34;5093001;28;19918;-41
2023/04/12 11:00:02;;;;;;;;;;;;;;;20.61;25.92;98415.63;5092487;28;19920;-40
2023/04/12 11:02:27;;;;;;;;;;;;;;;20.27;26.18;98414.09;5092815;28;19912;-40
2023/04/12 11:05:07;;;;;;;;;;;;;;;19.62;27.16;98450.03;5092913;28;19919;-41
2023/04/12 11:07:43;;;;;;;;;;;;;;;19.96;27.55;98432.78;5092795;28;19951;-41
2023/04/12 11:10:13;;;;;;;;;;;;;;;19.50;28.05;98431.59;5092250;28;20281;-42
2023/04/12 11:12:39;;;;;;;;;;;;;;;19.06;28.55;98448.19;5092529;28;19912;-41
2023/04/12 11:15:05;;;;;;;;;;;;;;;19.10;29.54;98439.22;5092458;28;20402;-41
2023/04/12 11:17:31;;;;;;;;;;;;;;;19.04;30.26;98445.78;5092428;28;19912;-42
2023/04/12 11:19:57;;;;;;;;;;;;;;;19.04;29.49;98442.25;5092298;28;19916;-42
2023/04/12 11:22:24;;;;;;;;;;;;;;;19.36;28.56;98438.81;5092402;28;19912;-41
2023/04/12 11:24:53;;;;;;;;;;;;;;;19.72;27.75;98451.78;5091922;28;19950;-42
2023/04/12 11:27:20;;;;;;;;;;;;;;;19.05;28.22;98452.75;5092158;28;19915;-41
2023/04/12 11:29:56;;;;;;;;;;;;;;;19.50;28.27;98442.41;5091951;28;19997;-42
2023/04/12 11:32:26;;;;;;;;;;;;;;;19.08;29.03;98438.69;5092214;28;19999;-42
2023/04/12 11:34:52;;;;;;;;;;;;;;;19.76;28.81;98433.91;5092234;28;19919;-43
2023/04/12 11:37:19;;;;;;;;;;;;;;;19.68;29.05;98431.88;5092214;28;19912;-42
2023/04/12 11:39:44;;;;;;;;;;;;;;;20.03;28.96;98430.50;5091954;28;20404;-41
2023/04/12 11:42:14;;;;;;;;;;;;;;;20.57;28.39;98416.50;5092019;28;19912;-42
2023/04/12 11:44:40;;;;;;;;;;;;;;;20.40;28.03;98417.13;5091125;28;19998;-42
2023/04/12 11:47:11;;;;;;;;;;;;;;;19.79;27.87;98421.75;5091948;28;20007;-42
2023/04/12 11:49:41;;;;;;;;;;;;;;;19.96;26.45;98413.09;5091702;28;19912;-41
2023/04/12 11:52:07;;;;;;;;;;;;;;;19.99;26.09;98404.38;5090485;28;19929;-41
2023/04/12 11:54:33;;;;;;;;;;;;;;;20.68;25.86;98417.94;5092197;28;19911;-41
2023/04/12 11:56:59;;;;;;;;;;;;;;;20.52;25.63;98428.22;5092040;28;20006;-40
2023/04/12 11:59:33;;;;;;;;;;;;;;;20.04;26.42;98423.97;5091829;28;20401;-42
2023/04/12 12:02:00;;;;;;;;;;;;;;;19.57;26.95;98422.31;5091764;28;19912;-41
2023/04/12 12:04:26;;;;;;;;;;;;;;;20.03;26.28;98419.69;5091550;28;20121;-42
2023/04/12 12:06:52;;;;;;;;;;;;;;;21.07;26.00;98419.25;5091784;28;19943;-41
2023/04/12 12:09:17;;;;;;;;;;;;;;;21.45;25.65;98424.38;5091623;28;19947;-42
2023/04/12 12:11:43;;;;;;;;;;;;;;;20.98;25.00;98415.66;5091578;28;20297;-42
2023/04/12 12:14:08;;;;;;;;;;;;;;;20.51;25.64;98415.81;5091781;28;20388;-42
2023/04/12 12:16:34;;;;;;;;;;;;;;;20.19;25.95;98412.09;5091545;28;20403;-44
2023/04/12 12:19:02;;;;;;;;;;;;;;;19.96;26.47;98408.47;5091665;28;19921;-41
2023/04/12 12:21:30;;;;;;;;;;;;;;;20.09;25.89;98415.78;5090876;28;19916;-41
2023/04/12 12:23:55;;;;;;;;;;;;;;;20.20;25.28;98416.41;5091214;28;20394;-41
2023/04/12 12:26:22;;;;;;;;;;;;;;;20.48;25.26;98411.00;5091146;28;20489;-41
2023/04/12 12:28:49;;;;;;;;;;;;;;;20.79;24.43;98405.81;5091197;28;20053;-40
2023/04/12 12:31:17;;;;;;;;;;;;;;;21.60;23.86;98401.53;5090987;28;20407;-42
2023/04/12 12:33:42;;;;;;;;;;;;;;;21.95;23.42;98383.59;5091210;28;19912;-41
2023/04/12 12:36:08;;;;;;;;;;;;;;;21.56;23.43;98403.28;5091329;28;19912;-41
2023/04/12 12:38:36;;;;;;;;;;;;;;;21.64;23.00;98400.59;5090940;28;20360;-41
2023/04/12 12:41:17;;;;;;;;;;;;;;;22.11;22.58;98408.34;5091117;28;19927;-42
2023/04/12 12:43:46;;;;;;;;;;;;;;;21.75;22.07;98398.44;5091066;28;19912;-41
2023/04/12 12:46:11;;;;;;;;;;;;;;;21.50;22.78;98401.81;5091217;28;19918;-40